sensor_id;sensor_type;location;lat;lon;timestamp;temperature;humidity
20973;DHT22;10645;52.370;13.314;2022-10-31T00:02:25;8.00;99.90
20973;DHT22;10645;52.370;13.314;2022-10-31T00:04:51;7.90;99.90
20973;DHT22;10645;52.370;13.314;2022-10-31T00:07:17;7.80;99.90
20973;DHT22;10645;52.370;13.314;2022-10-31T00:09:43;7.80;99.90
20973;DHT22;10645;52.370;13.314;2022-10-31T00:12:09;7.80;99.90
20973;DHT22;10645;52.370;13.314;2022-10-31T00:14:36;7.80;99.90
20973;DHT22;10645;52.370;13.314;2022-10-31T00:17:02;7.70;99.90
20973;DHT22;10645;52.370;13.314;2022-10-31T00:19:28;7.70;99.90
20973;DHT22;10645;52.370;13.314;2022-10-31T00:21:54;7.70;99.90
20973;DHT22;10645;52.370;13.314;2022-10-31T00:24:20;7.60;99.90
20973;DHT22;10645;52.370;13.314;2022-10-31T00:26:46;7.60;99.90
20973;DHT22;10645;52.370;13.314;2022-10-31T00:29:12;7.60;99.90
20973;DHT22;10645;52.370;13.314;2022-10-31T00:31:38;7.60;99.90
20973;DHT22;10645;52.370;13.314;2022-10-31T00:34:04;7.60;99.90
20973;DHT22;10645;52.370;13.314;2022-10-31T00:36:31;7.60;99.90
20973;DHT22;10645;52.370;13.314;2022-10-31T00:38:58;7.50;99.90
20973;DHT22;10645;52.370;13.314;2022-10-31T00:41:24;7.50;99.90
20973;DHT22;10645;52.370;13.314;2022-10-31T00:43:50;7.50;99.90
20973;DHT22;10645;52.370;13.314;2022-10-31T00:46:16;7.60;99.90
20973;DHT22;10645;52.370;13.314;2022-10-31T00:48:43;7.50;99.90
20973;DHT22;10645;52.370;13.314;2022-10-31T00:51:09;7.60;99.90
20973;DHT22;10645;52.370;13.314;2022-10-31T00:53:35;7.60;99.90
20973;DHT22;10645;52.370;13.314;2022-10-31T00:56:02;7.60;99.90
20973;DHT22;10645;52.370;13.314;2022-10-31T00:58:29;7.60;99.90
20973;DHT22;10645;52.370;13.314;2022-10-31T01:00:55;7.70;99.90
20973;DHT22;10645;52.370;13.314;2022-10-31T01:03:27;7.60;99.90
20973;DHT22;10645;52.370;13.314;2022-10-31T01:06:04;7.70;99.90
20973;DHT22;10645;52.370;13.314;2022-10-31T01:08:33;7.70;99.90
20973;DHT22;10645;52.370;13.314;2022-10-31T01:11:07;7.70;99.90
20973;DHT22;10645;52.370;13.314;2022-10-31T01:13:34;7.70;99.90
20973;DHT22;10645;52.370;13.314;2022-10-31T01:16:02;7.70;99.90
20973;DHT22;10645;52.370;13.314;2022-10-31T01:18:29;7.70;99.90
20973;DHT22;10645;52.370;13.314;2022-10-31T01:21:13;7.70;99.90
20973;DHT22;10645;52.370;13.314;2022-10-31T01:23:39;7.80;99.90
20973;DHT22;10645;52.370;13.314;2022-10-31T01:26:11;7.80;99.90
20973;DHT22;10645;52.370;13.314;2022-10-31T01:28:46;7.80;99.90
20973;DHT22;10645;52.370;13.314;2022-10-31T01:31:13;7.90;99.90
20973;DHT22;10645;52.370;13.314;2022-10-31T01:33:39;7.90;99.90
20973;DHT22;10645;52.370;13.314;2022-10-31T01:36:35;7.90;99.90
20973;DHT22;10645;52.370;13.314;2022-10-31T01:39:05;8.00;99.90
20973;DHT22;10645;52.370;13.314;2022-10-31T01:41:35;8.00;99.90
20973;DHT22;10645;52.370;13.314;2022-10-31T01:52:10;8.00;99.90
20973;DHT22;10645;52.370;13.314;2022-10-31T01:54:40;8.00;99.90
20973;DHT22;10645;52.370;13.314;2022-10-31T01:57:10;8.00;99.90
20973;DHT22;10645;52.370;13.314;2022-10-31T01:59:42;8.10;99.90
20973;DHT22;10645;52.370;13.314;2022-10-31T02:02:08;8.10;99.90
20973;DHT22;10645;52.370;13.314;2022-10-31T02:04:35;8.10;99.90
20973;DHT22;10645;52.370;13.314;2022-10-31T02:07:33;8.10;99.90
20973;DHT22;10645;52.370;13.314;2022-10-31T02:10:02;8.20;99.90
20973;DHT22;10645;52.370;13.314;2022-10-31T02:12:30;8.30;99.90
20973;DHT22;10645;52.370;13.314;2022-10-31T02:15:00;8.30;99.90
20973;DHT22;10645;52.370;13.314;2022-10-31T02:17:26;8.30;99.90
20973;DHT22;10645;52.370;13.314;2022-10-31T02:19:54;8.30;99.90
20973;DHT22;10645;52.370;13.314;2022-10-31T02:22:59;8.40;99.90
20973;DHT22;10645;52.370;13.314;2022-10-31T02:25:51;8.30;99.90
20973;DHT22;10645;52.370;13.314;2022-10-31T02:28:55;8.30;99.90
20973;DHT22;10645;52.370;13.314;2022-10-31T02:31:50;8.20;99.90
20973;DHT22;10645;52.370;13.314;2022-10-31T02:34:21;8.20;99.90
20973;DHT22;10645;52.370;13.314;2022-10-31T02:37:25;8.10;99.90
20973;DHT22;10645;52.370;13.314;2022-10-31T02:43:12;8.00;99.90
20973;DHT22;10645;52.370;13.314;2022-10-31T02:45:47;7.90;99.90
20973;DHT22;10645;52.370;13.314;2022-10-31T02:48:19;7.90;99.90
20973;DHT22;10645;52.370;13.314;2022-10-31T02:50:52;8.00;99.90
20973;DHT22;10645;52.370;13.314;2022-10-31T02:53:21;7.90;99.90
20973;DHT22;10645;52.370;13.314;2022-10-31T02:56:00;7.90;99.90
20973;DHT22;10645;52.370;13.314;2022-10-31T02:58:31;7.90;99.90
20973;DHT22;10645;52.370;13.314;2022-10-31T03:01:10;7.90;99.90
20973;DHT22;10645;52.370;13.314;2022-10-31T03:03:57;7.90;99.90
20973;DHT22;10645;52.370;13.314;2022-10-31T03:06:49;7.90;99.90
20973;DHT22;10645;52.370;13.314;2022-10-31T03:09:24;7.90;99.90
20973;DHT22;10645;52.370;13.314;2022-10-31T03:12:10;7.80;99.90
20973;DHT22;10645;52.370;13.314;2022-10-31T03:15:10;7.80;99.90
20973;DHT22;10645;52.370;13.314;2022-10-31T03:17:49;7.80;99.90
20973;DHT22;10645;52.370;13.314;2022-10-31T03:20:20;7.80;99.90
20973;DHT22;10645;52.370;13.314;2022-10-31T03:22:50;7.80;99.90
20973;DHT22;10645;52.370;13.314;2022-10-31T03:25:17;7.80;99.90
20973;DHT22;10645;52.370;13.314;2022-10-31T03:27:44;7.80;99.90
20973;DHT22;10645;52.370;13.314;2022-10-31T03:30:12;7.70;99.90
20973;DHT22;10645;52.370;13.314;2022-10-31T03:32:57;7.70;99.90
20973;DHT22;10645;52.370;13.314;2022-10-31T03:35:27;7.70;99.90
20973;DHT22;10645;52.370;13.314;2022-10-31T03:37:55;7.70;99.90
20973;DHT22;10645;52.370;13.314;2022-10-31T03:40:24;7.60;99.90
20973;DHT22;10645;52.370;13.314;2022-10-31T03:42:59;7.60;99.90
20973;DHT22;10645;52.370;13.314;2022-10-31T03:45:29;7.60;99.90
20973;DHT22;10645;52.370;13.314;2022-10-31T03:47:57;7.50;99.90
20973;DHT22;10645;52.370;13.314;2022-10-31T03:50:28;7.50;99.90
20973;DHT22;10645;52.370;13.314;2022-10-31T03:53:11;7.50;99.90
20973;DHT22;10645;52.370;13.314;2022-10-31T03:55:42;7.50;99.90
20973;DHT22;10645;52.370;13.314;2022-10-31T03:58:25;7.50;99.90
20973;DHT22;10645;52.370;13.314;2022-10-31T04:00:54;7.40;99.90
20973;DHT22;10645;52.370;13.314;2022-10-31T04:03:30;7.40;99.90
20973;DHT22;10645;52.370;13.314;2022-10-31T04:06:04;7.30;99.90
20973;DHT22;10645;52.370;13.314;2022-10-31T04:08:40;7.30;99.90
20973;DHT22;10645;52.370;13.314;2022-10-31T04:11:09;7.20;99.90
20973;DHT22;10645;52.370;13.314;2022-10-31T04:13:41;7.20;99.90
20973;DHT22;10645;52.370;13.314;2022-10-31T04:16:14;7.20;99.90
20973;DHT22;10645;52.370;13.314;2022-10-31T04:18:41;7.10;99.90
20973;DHT22;10645;52.370;13.314;2022-10-31T04:21:08;7.10;99.90
20973;DHT22;10645;52.370;13.314;2022-10-31T04:23:35;7.10;99.90
20973;DHT22;10645;52.370;13.314;2022-10-31T04:26:12;7.10;99.90
20973;DHT22;10645;52.370;13.314;2022-10-31T04:28:38;7.00;99.90
20973;DHT22;10645;52.370;13.314;2022-10-31T04:31:05;7.00;99.90
20973;DHT22;10645;52.370;13.314;2022-10-31T04:33:34;7.00;99.90
20973;DHT22;10645;52.370;13.314;2022-10-31T04:36:01;7.00;99.90
20973;DHT22;10645;52.370;13.314;2022-10-31T04:38:28;7.00;99.90
20973;DHT22;10645;52.370;13.314;2022-10-31T04:40:54;7.10;99.90
20973;DHT22;10645;52.370;13.314;2022-10-31T04:43:39;7.10;99.90
20973;DHT22;10645;52.370;13.314;2022-10-31T04:46:05;7.20;99.90
20973;DHT22;10645;52.370;13.314;2022-10-31T04:48:32;7.20;99.90
20973;DHT22;10645;52.370;13.314;2022-10-31T04:50:59;7.20;99.90
20973;DHT22;10645;52.370;13.314;2022-10-31T04:53:26;7.20;99.90
20973;DHT22;10645;52.370;13.314;2022-10-31T04:56:15;7.20;99.90
20973;DHT22;10645;52.370;13.314;2022-10-31T04:58:45;7.20;99.90
20973;DHT22;10645;52.370;13.314;2022-10-31T05:01:12;7.20;99.90
20973;DHT22;10645;52.370;13.314;2022-10-31T05:03:39;7.20;99.90
20973;DHT22;10645;52.370;13.314;2022-10-31T05:06:06;7.20;99.90
20973;DHT22;10645;52.370;13.314;2022-10-31T05:08:32;7.20;99.90
20973;DHT22;10645;52.370;13.314;2022-10-31T05:11:02;7.10;99.90
20973;DHT22;10645;52.370;13.314;2022-10-31T05:13:29;7.10;99.90
20973;DHT22;10645;52.370;13.314;2022-10-31T05:16:13;7.10;99.90
20973;DHT22;10645;52.370;13.314;2022-10-31T05:19:14;7.10;99.90
20973;DHT22;10645;52.370;13.314;2022-10-31T05:22:18;7.20;99.90
20973;DHT22;10645;52.370;13.314;2022-10-31T05:24:44;7.10;99.90
20973;DHT22;10645;52.370;13.314;2022-10-31T05:27:10;7.00;99.90
20973;DHT22;10645;52.370;13.314;2022-10-31T05:29:36;7.00;99.90
20973;DHT22;10645;52.370;13.314;2022-10-31T05:32:03;6.90;99.90
20973;DHT22;10645;52.370;13.314;2022-10-31T05:34:52;7.00;99.90
20973;DHT22;10645;52.370;13.314;2022-10-31T05:37:46;7.00;99.90
20973;DHT22;10645;52.370;13.314;2022-10-31T05:40:14;7.00;99.90
20973;DHT22;10645;52.370;13.314;2022-10-31T05:42:41;7.00;99.90
20973;DHT22;10645;52.370;13.314;2022-10-31T05:45:09;7.00;99.90
20973;DHT22;10645;52.370;13.314;2022-10-31T05:47:55;7.10;99.90
20973;DHT22;10645;52.370;13.314;2022-10-31T05:50:57;7.00;99.90
20973;DHT22;10645;52.370;13.314;2022-10-31T05:53:24;7.00;99.90
20973;DHT22;10645;52.370;13.314;2022-10-31T05:55:50;7.00;99.90
20973;DHT22;10645;52.370;13.314;2022-10-31T05:58:19;7.00;99.90
20973;DHT22;10645;52.370;13.314;2022-10-31T06:00:51;6.90;99.90
20973;DHT22;10645;52.370;13.314;2022-10-31T06:03:17;6.90;99.90
20973;DHT22;10645;52.370;13.314;2022-10-31T06:05:47;6.80;99.90
20973;DHT22;10645;52.370;13.314;2022-10-31T06:08:13;6.80;99.90
20973;DHT22;10645;52.370;13.314;2022-10-31T06:10:40;6.80;99.90
20973;DHT22;10645;52.370;13.314;2022-10-31T06:13:07;6.80;99.90
20973;DHT22;10645;52.370;13.314;2022-10-31T06:15:41;6.90;99.90
20973;DHT22;10645;52.370;13.314;2022-10-31T06:18:08;6.90;99.90
20973;DHT22;10645;52.370;13.314;2022-10-31T06:20:46;6.90;99.90
20973;DHT22;10645;52.370;13.314;2022-10-31T06:23:12;6.90;99.90
20973;DHT22;10645;52.370;13.314;2022-10-31T06:25:40;7.00;99.90
20973;DHT22;10645;52.370;13.314;2022-10-31T06:28:07;7.10;99.90
20973;DHT22;10645;52.370;13.314;2022-10-31T06:30:45;7.10;99.90
20973;DHT22;10645;52.370;13.314;2022-10-31T06:33:11;7.20;99.90
20973;DHT22;10645;52.370;13.314;2022-10-31T06:35:46;7.20;99.90
20973;DHT22;10645;52.370;13.314;2022-10-31T06:38:13;7.30;99.90
20973;DHT22;10645;52.370;13.314;2022-10-31T06:40:41;7.40;99.90
20973;DHT22;10645;52.370;13.314;2022-10-31T06:43:25;7.40;99.90
20973;DHT22;10645;52.370;13.314;2022-10-31T06:46:07;7.50;99.90
20973;DHT22;10645;52.370;13.314;2022-10-31T06:48:40;7.50;99.90
20973;DHT22;10645;52.370;13.314;2022-10-31T06:51:26;7.70;99.90
20973;DHT22;10645;52.370;13.314;2022-10-31T06:53:53;7.80;99.90
20973;DHT22;10645;52.370;13.314;2022-10-31T06:56:19;7.90;99.90
20973;DHT22;10645;52.370;13.314;2022-10-31T06:58:49;8.10;99.90
20973;DHT22;10645;52.370;13.314;2022-10-31T07:01:20;8.20;99.90
20973;DHT22;10645;52.370;13.314;2022-10-31T07:03:47;8.40;99.90
20973;DHT22;10645;52.370;13.314;2022-10-31T07:06:13;8.60;99.90
20973;DHT22;10645;52.370;13.314;2022-10-31T07:08:40;8.80;99.90
20973;DHT22;10645;52.370;13.314;2022-10-31T07:11:06;9.10;99.90
20973;DHT22;10645;52.370;13.314;2022-10-31T07:13:33;9.50;99.90
20973;DHT22;10645;52.370;13.314;2022-10-31T07:16:07;9.90;99.90
20973;DHT22;10645;52.370;13.314;2022-10-31T07:18:35;10.30;99.90
20973;DHT22;10645;52.370;13.314;2022-10-31T07:21:02;10.60;99.90
20973;DHT22;10645;52.370;13.314;2022-10-31T07:23:28;10.90;99.90
20973;DHT22;10645;52.370;13.314;2022-10-31T07:26:20;11.20;99.90
20973;DHT22;10645;52.370;13.314;2022-10-31T07:28:47;11.50;99.90
20973;DHT22;10645;52.370;13.314;2022-10-31T07:31:14;11.70;99.90
20973;DHT22;10645;52.370;13.314;2022-10-31T07:33:41;11.80;99.90
20973;DHT22;10645;52.370;13.314;2022-10-31T07:36:45;12.00;99.90
20973;DHT22;10645;52.370;13.314;2022-10-31T07:39:12;12.20;99.90
20973;DHT22;10645;52.370;13.314;2022-10-31T07:41:38;12.30;99.90
20973;DHT22;10645;52.370;13.314;2022-10-31T07:44:04;12.50;99.90
20973;DHT22;10645;52.370;13.314;2022-10-31T07:46:49;12.60;99.90
20973;DHT22;10645;52.370;13.314;2022-10-31T07:49:34;12.60;99.90
20973;DHT22;10645;52.370;13.314;2022-10-31T07:52:18;12.70;99.90
20973;DHT22;10645;52.370;13.314;2022-10-31T07:55:08;12.90;99.90
20973;DHT22;10645;52.370;13.314;2022-10-31T07:57:35;13.10;99.90
20973;DHT22;10645;52.370;13.314;2022-10-31T08:00:07;13.20;99.90
20973;DHT22;10645;52.370;13.314;2022-10-31T08:02:40;13.30;99.90
20973;DHT22;10645;52.370;13.314;2022-10-31T08:05:30;13.40;99.90
20973;DHT22;10645;52.370;13.314;2022-10-31T08:08:15;13.50;99.90
20973;DHT22;10645;52.370;13.314;2022-10-31T08:10:42;13.50;99.90
20973;DHT22;10645;52.370;13.314;2022-10-31T08:13:13;13.50;99.90
20973;DHT22;10645;52.370;13.314;2022-10-31T08:15:42;13.50;99.90
20973;DHT22;10645;52.370;13.314;2022-10-31T08:18:12;13.60;99.90
20973;DHT22;10645;52.370;13.314;2022-10-31T08:20:39;13.50;99.90
20973;DHT22;10645;52.370;13.314;2022-10-31T08:23:05;13.50;99.90
20973;DHT22;10645;52.370;13.314;2022-10-31T08:25:34;13.50;99.90
20973;DHT22;10645;52.370;13.314;2022-10-31T08:28:01;13.50;99.90
20973;DHT22;10645;52.370;13.314;2022-10-31T08:30:30;13.60;99.90
20973;DHT22;10645;52.370;13.314;2022-10-31T08:33:22;13.60;99.90
20973;DHT22;10645;52.370;13.314;2022-10-31T08:36:07;13.60;99.90
20973;DHT22;10645;52.370;13.314;2022-10-31T08:38:57;13.60;99.90
20973;DHT22;10645;52.370;13.314;2022-10-31T08:41:23;13.60;99.90
20973;DHT22;10645;52.370;13.314;2022-10-31T08:43:49;13.60;99.90
20973;DHT22;10645;52.370;13.314;2022-10-31T08:46:16;13.60;99.90
20973;DHT22;10645;52.370;13.314;2022-10-31T08:48:43;13.70;99.90
20973;DHT22;10645;52.370;13.314;2022-10-31T08:51:10;13.80;99.90
20973;DHT22;10645;52.370;13.314;2022-10-31T08:53:36;13.70;99.90
20973;DHT22;10645;52.370;13.314;2022-10-31T08:56:21;13.80;99.90
20973;DHT22;10645;52.370;13.314;2022-10-31T08:58:48;13.90;99.90
20973;DHT22;10645;52.370;13.314;2022-10-31T09:01:14;14.00;99.90
20973;DHT22;10645;52.370;13.314;2022-10-31T09:03:42;14.10;99.90
20973;DHT22;10645;52.370;13.314;2022-10-31T09:06:10;14.20;99.90
20973;DHT22;10645;52.370;13.314;2022-10-31T09:08:37;14.20;99.90
20973;DHT22;10645;52.370;13.314;2022-10-31T09:11:03;14.30;99.90
20973;DHT22;10645;52.370;13.314;2022-10-31T09:13:49;14.20;99.90
20973;DHT22;10645;52.370;13.314;2022-10-31T09:16:36;14.20;99.90
20973;DHT22;10645;52.370;13.314;2022-10-31T09:19:02;14.10;99.90
20973;DHT22;10645;52.370;13.314;2022-10-31T09:21:28;14.10;99.90
20973;DHT22;10645;52.370;13.314;2022-10-31T09:23:54;14.10;99.90
20973;DHT22;10645;52.370;13.314;2022-10-31T09:26:20;14.00;99.90
20973;DHT22;10645;52.370;13.314;2022-10-31T09:28:55;14.00;99.90
20973;DHT22;10645;52.370;13.314;2022-10-31T09:31:23;14.00;99.90
20973;DHT22;10645;52.370;13.314;2022-10-31T09:33:54;14.00;99.90
20973;DHT22;10645;52.370;13.314;2022-10-31T09:36:43;14.20;99.90
20973;DHT22;10645;52.370;13.314;2022-10-31T09:39:19;14.20;99.90
20973;DHT22;10645;52.370;13.314;2022-10-31T09:44:52;14.40;99.90
20973;DHT22;10645;52.370;13.314;2022-10-31T09:47:43;14.40;99.90
20973;DHT22;10645;52.370;13.314;2022-10-31T09:50:41;14.50;99.90
20973;DHT22;10645;52.370;13.314;2022-10-31T09:53:46;14.60;99.90
20973;DHT22;10645;52.370;13.314;2022-10-31T09:56:20;14.50;99.90
20973;DHT22;10645;52.370;13.314;2022-10-31T09:58:59;14.50;99.90
20973;DHT22;10645;52.370;13.314;2022-10-31T10:01:51;14.40;99.90
20973;DHT22;10645;52.370;13.314;2022-10-31T10:07:32;14.30;99.90
20973;DHT22;10645;52.370;13.314;2022-10-31T10:10:51;14.40;99.90
20973;DHT22;10645;52.370;13.314;2022-10-31T10:16:38;14.70;99.90
20973;DHT22;10645;52.370;13.314;2022-10-31T10:22:10;15.00;99.90
20973;DHT22;10645;52.370;13.314;2022-10-31T10:27:45;15.30;99.90
20973;DHT22;10645;52.370;13.314;2022-10-31T10:30:20;15.40;99.90
20973;DHT22;10645;52.370;13.314;2022-10-31T10:32:50;15.40;99.90
20973;DHT22;10645;52.370;13.314;2022-10-31T10:35:25;15.40;99.90
20973;DHT22;10645;52.370;13.314;2022-10-31T10:37:59;15.30;99.90
20973;DHT22;10645;52.370;13.314;2022-10-31T10:40:27;15.30;99.90
20973;DHT22;10645;52.370;13.314;2022-10-31T10:43:17;15.20;99.90
20973;DHT22;10645;52.370;13.314;2022-10-31T10:46:19;15.20;99.90
20973;DHT22;10645;52.370;13.314;2022-10-31T10:49:19;15.10;99.90
20973;DHT22;10645;52.370;13.314;2022-10-31T10:54:41;15.30;99.90
20973;DHT22;10645;52.370;13.314;2022-10-31T10:57:32;15.40;99.90
20973;DHT22;10645;52.370;13.314;2022-10-31T11:00:14;15.50;99.90
20973;DHT22;10645;52.370;13.314;2022-10-31T11:02:42;15.60;99.90
20973;DHT22;10645;52.370;13.314;2022-10-31T11:05:18;15.50;99.90
20973;DHT22;10645;52.370;13.314;2022-10-31T11:07:46;15.60;99.90
20973;DHT22;10645;52.370;13.314;2022-10-31T11:10:14;15.60;99.90
20973;DHT22;10645;52.370;13.314;2022-10-31T11:12:41;15.70;99.90
20973;DHT22;10645;52.370;13.314;2022-10-31T11:15:23;15.60;99.90
20973;DHT22;10645;52.370;13.314;2022-10-31T11:17:52;15.80;99.90
20973;DHT22;10645;52.370;13.314;2022-10-31T11:22:47;16.00;99.90
20973;DHT22;10645;52.370;13.314;2022-10-31T11:25:32;16.00;99.90
20973;DHT22;10645;52.370;13.314;2022-10-31T11:28:04;16.00;99.90
20973;DHT22;10645;52.370;13.314;2022-10-31T11:30:35;15.90;99.90
20973;DHT22;10645;52.370;13.314;2022-10-31T11:33:03;15.90;99.90
20973;DHT22;10645;52.370;13.314;2022-10-31T11:35:29;16.10;99.90
20973;DHT22;10645;52.370;13.314;2022-10-31T11:38:05;16.20;99.90
20973;DHT22;10645;52.370;13.314;2022-10-31T11:40:31;16.30;99.90
20973;DHT22;10645;52.370;13.314;2022-10-31T11:42:58;16.50;99.90
20973;DHT22;10645;52.370;13.314;2022-10-31T11:45:32;16.70;99.90
20973;DHT22;10645;52.370;13.314;2022-10-31T11:48:01;16.80;99.90
20973;DHT22;10645;52.370;13.314;2022-10-31T11:50:40;17.00;99.90
20973;DHT22;10645;52.370;13.314;2022-10-31T11:53:17;17.10;99.90
20973;DHT22;10645;52.370;13.314;2022-10-31T11:55:44;17.10;99.90
20973;DHT22;10645;52.370;13.314;2022-10-31T11:58:40;17.20;99.90
20973;DHT22;10645;52.370;13.314;2022-10-31T12:01:26;17.30;99.90
20973;DHT22;10645;52.370;13.314;2022-10-31T12:04:08;17.40;99.90
20973;DHT22;10645;52.370;13.314;2022-10-31T12:06:40;17.50;99.90
20973;DHT22;10645;52.370;13.314;2022-10-31T12:14:54;17.60;99.90
20973;DHT22;10645;52.370;13.314;2022-10-31T12:17:39;17.70;99.90
20973;DHT22;10645;52.370;13.314;2022-10-31T12:20:37;17.90;99.90
20973;DHT22;10645;52.370;13.314;2022-10-31T12:26:08;17.80;99.90
20973;DHT22;10645;52.370;13.314;2022-10-31T12:32:26;18.00;99.90
20973;DHT22;10645;52.370;13.314;2022-10-31T12:35:21;18.10;99.90
20973;DHT22;10645;52.370;13.314;2022-10-31T12:41:06;18.20;99.90
20973;DHT22;10645;52.370;13.314;2022-10-31T12:46:39;18.40;99.90
20973;DHT22;10645;52.370;13.314;2022-10-31T12:49:27;18.40;99.90
20973;DHT22;10645;52.370;13.314;2022-10-31T12:58:06;18.40;99.90
20973;DHT22;10645;52.370;13.314;2022-10-31T13:00:38;18.40;99.90
20973;DHT22;10645;52.370;13.314;2022-10-31T13:03:35;18.40;99.90
20973;DHT22;10645;52.370;13.314;2022-10-31T13:06:08;18.40;99.90
20973;DHT22;10645;52.370;13.314;2022-10-31T13:08:43;18.40;99.90
20973;DHT22;10645;52.370;13.314;2022-10-31T13:11:16;18.30;99.90
20973;DHT22;10645;52.370;13.314;2022-10-31T13:14:09;18.20;99.90
20973;DHT22;10645;52.370;13.314;2022-10-31T13:16:43;18.30;99.90
20973;DHT22;10645;52.370;13.314;2022-10-31T13:19:18;18.20;99.90
20973;DHT22;10645;52.370;13.314;2022-10-31T13:21:58;18.20;99.90
20973;DHT22;10645;52.370;13.314;2022-10-31T13:27:25;18.10;99.90
20973;DHT22;10645;52.370;13.314;2022-10-31T13:29:56;18.00;99.90
20973;DHT22;10645;52.370;13.314;2022-10-31T13:32:26;18.00;99.90
20973;DHT22;10645;52.370;13.314;2022-10-31T13:34:56;18.00;99.90
20973;DHT22;10645;52.370;13.314;2022-10-31T13:37:35;17.90;99.90
20973;DHT22;10645;52.370;13.314;2022-10-31T13:45:26;17.70;99.90
20973;DHT22;10645;52.370;13.314;2022-10-31T13:47:57;17.60;99.90
20973;DHT22;10645;52.370;13.314;2022-10-31T13:50:29;17.50;99.90
20973;DHT22;10645;52.370;13.314;2022-10-31T13:53:20;17.50;99.90
20973;DHT22;10645;52.370;13.314;2022-10-31T13:55:49;17.40;99.90
20973;DHT22;10645;52.370;13.314;2022-10-31T13:58:26;17.30;99.90
20973;DHT22;10645;52.370;13.314;2022-10-31T14:01:12;17.20;99.90
20973;DHT22;10645;52.370;13.314;2022-10-31T14:03:41;17.20;99.90
20973;DHT22;10645;52.370;13.314;2022-10-31T14:06:10;17.10;99.90
20973;DHT22;10645;52.370;13.314;2022-10-31T14:08:47;17.10;99.90
20973;DHT22;10645;52.370;13.314;2022-10-31T14:11:23;17.00;99.90
20973;DHT22;10645;52.370;13.314;2022-10-31T14:13:50;16.90;99.90
20973;DHT22;10645;52.370;13.314;2022-10-31T14:16:28;16.90;99.90
20973;DHT22;10645;52.370;13.314;2022-10-31T14:19:05;16.80;99.90
20973;DHT22;10645;52.370;13.314;2022-10-31T14:21:39;16.80;99.90
20973;DHT22;10645;52.370;13.314;2022-10-31T14:26:57;16.80;99.90
20973;DHT22;10645;52.370;13.314;2022-10-31T14:32:04;16.80;99.90
20973;DHT22;10645;52.370;13.314;2022-10-31T14:34:39;16.80;99.90
20973;DHT22;10645;52.370;13.314;2022-10-31T14:40:18;16.60;99.90
20973;DHT22;10645;52.370;13.314;2022-10-31T14:42:55;16.50;99.90
20973;DHT22;10645;52.370;13.314;2022-10-31T14:50:52;16.20;99.90
20973;DHT22;10645;52.370;13.314;2022-10-31T14:53:23;16.10;99.90
20973;DHT22;10645;52.370;13.314;2022-10-31T14:55:52;16.00;99.90
20973;DHT22;10645;52.370;13.314;2022-10-31T14:58:24;15.80;99.90
20973;DHT22;10645;52.370;13.314;2022-10-31T15:00:55;15.80;99.90
20973;DHT22;10645;52.370;13.314;2022-10-31T15:03:28;15.60;99.90
20973;DHT22;10645;52.370;13.314;2022-10-31T15:05:59;15.50;99.90
20973;DHT22;10645;52.370;13.314;2022-10-31T15:08:31;15.40;99.90
20973;DHT22;10645;52.370;13.314;2022-10-31T15:10:58;15.40;99.90
20973;DHT22;10645;52.370;13.314;2022-10-31T15:13:24;15.30;99.90
20973;DHT22;10645;52.370;13.314;2022-10-31T15:15:53;15.10;99.90
20973;DHT22;10645;52.370;13.314;2022-10-31T15:18:27;15.10;99.90
20973;DHT22;10645;52.370;13.314;2022-10-31T15:20:56;15.00;99.90
20973;DHT22;10645;52.370;13.314;2022-10-31T15:23:23;14.90;99.90
20973;DHT22;10645;52.370;13.314;2022-10-31T15:25:50;14.80;99.90
20973;DHT22;10645;52.370;13.314;2022-10-31T15:28:24;14.60;99.90
20973;DHT22;10645;52.370;13.314;2022-10-31T15:30:55;14.60;99.90
20973;DHT22;10645;52.370;13.314;2022-10-31T15:33:30;14.50;99.90
20973;DHT22;10645;52.370;13.314;2022-10-31T15:35:59;14.40;99.90
20973;DHT22;10645;52.370;13.314;2022-10-31T15:38:26;14.20;99.90
20973;DHT22;10645;52.370;13.314;2022-10-31T15:40:59;14.20;99.90
20973;DHT22;10645;52.370;13.314;2022-10-31T15:43:29;14.00;99.90
20973;DHT22;10645;52.370;13.314;2022-10-31T15:45:59;13.90;99.90
20973;DHT22;10645;52.370;13.314;2022-10-31T15:48:26;13.90;99.90
20973;DHT22;10645;52.370;13.314;2022-10-31T15:50:56;13.80;99.90
20973;DHT22;10645;52.370;13.314;2022-10-31T15:53:35;13.70;99.90
20973;DHT22;10645;52.370;13.314;2022-10-31T15:56:07;13.70;99.90
20973;DHT22;10645;52.370;13.314;2022-10-31T15:58:42;13.50;99.90
20973;DHT22;10645;52.370;13.314;2022-10-31T16:01:24;13.50;99.90
20973;DHT22;10645;52.370;13.314;2022-10-31T16:04:03;13.40;99.90
20973;DHT22;10645;52.370;13.314;2022-10-31T16:06:29;13.20;99.90
20973;DHT22;10645;52.370;13.314;2022-10-31T16:08:56;13.00;99.90
20973;DHT22;10645;52.370;13.314;2022-10-31T16:11:34;12.90;99.90
20973;DHT22;10645;52.370;13.314;2022-10-31T16:14:16;12.80;99.90
20973;DHT22;10645;52.370;13.314;2022-10-31T16:16:48;12.90;99.90
20973;DHT22;10645;52.370;13.314;2022-10-31T16:19:27;12.90;99.90
20973;DHT22;10645;52.370;13.314;2022-10-31T16:22:03;12.80;99.90
20973;DHT22;10645;52.370;13.314;2022-10-31T16:24:33;12.90;99.90
20973;DHT22;10645;52.370;13.314;2022-10-31T16:27:19;12.90;99.90
20973;DHT22;10645;52.370;13.314;2022-10-31T16:29:46;12.80;99.90
20973;DHT22;10645;52.370;13.314;2022-10-31T16:35:00;12.70;99.90
20973;DHT22;10645;52.370;13.314;2022-10-31T16:37:26;12.70;99.90
20973;DHT22;10645;52.370;13.314;2022-10-31T16:39:52;12.70;99.90
20973;DHT22;10645;52.370;13.314;2022-10-31T16:42:18;12.70;99.90
20973;DHT22;10645;52.370;13.314;2022-10-31T16:44:46;12.70;99.90
20973;DHT22;10645;52.370;13.314;2022-10-31T16:47:15;12.70;99.90
20973;DHT22;10645;52.370;13.314;2022-10-31T16:49:43;12.70;99.90
20973;DHT22;10645;52.370;13.314;2022-10-31T16:52:09;12.70;99.90
20973;DHT22;10645;52.370;13.314;2022-10-31T16:54:35;12.70;99.90
20973;DHT22;10645;52.370;13.314;2022-10-31T16:57:03;12.70;99.90
20973;DHT22;10645;52.370;13.314;2022-10-31T16:59:31;12.60;99.90
20973;DHT22;10645;52.370;13.314;2022-10-31T17:01:59;12.50;99.90
20973;DHT22;10645;52.370;13.314;2022-10-31T17:04:26;12.50;99.90
20973;DHT22;10645;52.370;13.314;2022-10-31T17:06:52;12.50;99.90
20973;DHT22;10645;52.370;13.314;2022-10-31T17:09:18;12.50;99.90
20973;DHT22;10645;52.370;13.314;2022-10-31T17:11:47;12.40;99.90
20973;DHT22;10645;52.370;13.314;2022-10-31T17:14:14;12.40;99.90
20973;DHT22;10645;52.370;13.314;2022-10-31T17:16:40;12.30;99.90
20973;DHT22;10645;52.370;13.314;2022-10-31T17:19:09;12.20;99.90
20973;DHT22;10645;52.370;13.314;2022-10-31T17:21:36;12.10;99.90
20973;DHT22;10645;52.370;13.314;2022-10-31T17:24:03;12.00;99.90